メインページ
METAR-TAF:

METAR-TAF

空港 :

Greater Rochester International Airport

ロチェスター, ニューヨーク, アメリカ合衆国

緯度: 43-07-00N, 経度: 077-40-36W, 海抜: 170m

現時点の気象観測

当レポートは1時間0分前の16:54(UTC)に作成
西の風 11kt
気温 28°C
湿度 58%
気圧 1012 hPa
視程: 16.1km
高度3500ftの雲は散在している
高度4300ftの雲は散在している
高度14000ftの千切れ雲あり

METAR: KROC 211654Z 28011KT 10SM SCT035 SCT043 BKN140 28/19 A2988 RMK AO2 SLP116 T02780189

時間: 13:54 (17:54 UTC)

予報

当レポートは14分前の17:40(UTC)に作成
予報は21日の 18時(UTC)から 22日の 18時(UTC)まで有効
西/北西の風 14kt
視程: 10km
高度3500ftの雲は散在している
高度15000ftの千切れ雲あり
21日の 2000時(UTC)から
西/北西の風 12kt
視程: 10km
高度20000ftの千切れ雲あり
22日の 0000時(UTC)から
西の風 6kt
視程: 10km
高度20000ftの雲は散在している
22日の 1100時(UTC)から
南西の風 6kt
視程: 10km
高度8000ftの曇り

TAF: KROC 211740Z 2118/2218 30014KT P6SM SCT035 BKN150 FM212000 30012KT P6SM BKN200 FM220000 28006KT P6SM SCT200 FM221100 22006KT P6SM OVC080

4,000以上の空港の気象観測と天気予報(METAR報とTAF報)

利用可能な観測所は地図上に黄色い丸と赤い丸で示す。

丸の上にカーソルを重ねると観測所名を参照できる。

次にクリックすると気象観測と天気予報を参照できる。

マップの切り替え:黒色「×」印の緑ボタンをクリックして拡大、「-」印の緑ボタンをクリックして縮小、緑色の三角印をクリックして隣りの地図に切り替え


METAR-TAF: